Time;durP1;ratioP1;P1;durP2;ratioP2;P2;SDS_P1;SDS_P2;PMS_P1;PMS_P2;Temp;Humidity;BMP_temperature;BMP_pressure;BME280_temperature;BME280_humidity;BME280_pressure;Samples;Min_cycle;Max_cycle;Signal;HPM_P1;HPM_P2
2020/12/08 00:02:05;;;;;;;8.97;8.17;;;;;;;3.87;81.46;99348.09;5065633;28;20197;-80
2020/12/08 00:04:31;;;;;;;10.97;8.77;;;;;;;3.87;81.67;99350.66;5073813;28;20204;-77
2020/12/08 00:06:57;;;;;;;8.53;7.83;;;;;;;3.94;81.23;99347.16;5073544;28;20669;-78
2020/12/08 00:09:23;;;;;;;8.60;7.90;;;;;;;3.93;81.09;99339.44;5073315;28;20281;-77
2020/12/08 00:11:49;;;;;;;9.53;8.77;;;;;;;3.91;81.55;99338.59;5073586;28;20238;-79
2020/12/08 00:14:15;;;;;;;9.33;8.60;;;;;;;3.86;81.49;99332.59;5073740;28;20320;-80
2020/12/08 00:16:42;;;;;;;8.90;8.20;;;;;;;3.80;82.24;99330.94;5073183;28;20254;-80
2020/12/08 00:19:10;;;;;;;9.93;9.13;;;;;;;3.88;81.29;99338.63;5073291;28;20233;-79
2020/12/08 00:21:36;;;;;;;9.20;8.50;;;;;;;3.86;81.30;99330.88;5073236;28;20196;-76
2020/12/08 00:24:03;;;;;;;10.10;9.30;;;;;;;3.85;81.21;99333.50;5072840;28;20716;-77
2020/12/08 00:26:29;;;;;;;10.37;9.57;;;;;;;3.79;81.59;99329.25;5069248;28;20206;-79
2020/12/08 00:28:55;;;;;;;9.80;8.90;;;;;;;3.81;81.44;99331.81;5071873;28;20227;-80
2020/12/08 00:31:24;;;;;;;8.67;7.97;;;;;;;3.84;81.36;99324.88;5068913;28;20236;-77
2020/12/08 00:33:50;;;;;;;8.97;8.27;;;;;;;3.87;80.80;99326.59;5072493;28;20270;-77
2020/12/08 00:36:16;;;;;;;8.83;8.13;;;;;;;3.90;80.93;99326.53;5073198;28;20284;-79
2020/12/08 00:38:42;;;;;;;8.73;8.03;;;;;;;3.84;81.31;99336.94;5068443;28;20259;-80
2020/12/08 00:41:13;;;;;;;8.53;7.93;;;;;;;3.77;81.24;99326.66;5071643;28;20280;-80
2020/12/08 00:43:38;;;;;;;9.17;8.47;;;;;;;3.73;81.71;99325.00;5071573;28;20193;-80
2020/12/08 00:46:04;;;;;;;8.10;7.50;;;;;;;3.75;81.39;99325.81;5072581;28;20258;-76
2020/12/08 00:48:31;;;;;;;9.30;8.60;;;;;;;3.83;80.46;99328.34;5072839;28;20635;-79
2020/12/08 00:50:57;;;;;;;10.10;9.40;;;;;;;3.79;79.92;99324.06;5072799;28;20201;-80
2020/12/08 00:53:23;;;;;;;11.07;10.27;;;;;;;3.78;79.88;99319.78;5073036;28;20698;-77
2020/12/08 00:55:48;;;;;;;10.73;9.83;;;;;;;3.83;80.00;99323.19;5072398;28;20197;-79
2020/12/08 00:58:15;;;;;;;10.37;9.57;;;;;;;3.85;79.60;99321.44;5071980;28;20256;-79
2020/12/08 01:00:41;;;;;;;10.37;9.57;;;;;;;3.81;79.30;99317.19;5073460;28;20197;-79
2020/12/08 01:03:07;;;;;;;10.97;10.17;;;;;;;3.86;79.41;99325.72;5072809;28;20790;-77
2020/12/08 01:05:33;;;;;;;10.60;9.80;;;;;;;3.85;79.41;99328.34;5072263;28;20716;-78
2020/12/08 01:07:58;;;;;;;10.53;9.63;;;;;;;3.87;79.30;99322.28;5072052;28;20323;-80
2020/12/08 01:10:24;;;;;;;10.27;9.47;;;;;;;3.89;78.95;99327.44;5072557;28;20236;-79
2020/12/08 01:12:50;;;;;;;9.57;8.87;;;;;;;3.86;78.98;99330.03;5072208;28;20746;-76
2020/12/08 01:15:17;;;;;;;9.07;8.37;;;;;;;3.88;78.63;99326.56;5068381;28;20638;-77
2020/12/08 01:17:43;;;;;;;10.10;9.30;;;;;;;3.90;78.63;99319.66;5056698;28;20216;-78
2020/12/08 01:20:09;;;;;;;9.50;8.80;;;;;;;3.92;78.36;99329.97;5072849;28;20216;-79
2020/12/08 01:22:34;;;;;;;8.83;8.23;;;;;;;3.92;78.60;99328.22;5072822;28;20205;-77
2020/12/08 01:25:00;;;;;;;9.57;8.87;;;;;;;3.93;78.74;99342.88;5072637;28;20663;-78
2020/12/08 01:27:26;;;;;;;10.10;9.30;;;;;;;3.85;79.51;99342.09;5072130;28;20220;-77
2020/12/08 01:29:52;;;;;;;10.30;9.40;;;;;;;3.91;78.91;99336.00;5072636;28;20193;-77
2020/12/08 01:32:19;;;;;;;11.10;10.30;;;;;;;3.91;78.63;99338.59;5072841;28;20296;-77
2020/12/08 01:34:44;;;;;;;11.87;10.87;;;;;;;3.87;78.68;99334.34;5066036;28;20222;-78
2020/12/08 01:37:10;;;;;;;10.50;9.70;;;;;;;3.87;78.60;99337.75;5072654;28;20254;-77
2020/12/08 01:39:36;;;;;;;11.77;10.90;;;;;;;3.90;78.68;99332.56;5072474;28;20197;-78
2020/12/08 01:42:02;;;;;;;11.57;10.67;;;;;;;3.84;79.56;99340.34;5072640;28;20205;-78
2020/12/08 01:44:28;;;;;;;10.60;9.80;;;;;;;3.78;79.54;99332.69;5072203;28;20659;-77
2020/12/08 01:46:54;;;;;;;10.13;9.23;;;;;;;3.74;80.13;99347.31;5064396;28;20282;-77
2020/12/08 01:49:21;;;;;;;12.63;9.97;;;;;;;3.75;80.70;99335.31;5072709;28;20220;-77
2020/12/08 01:51:46;;;;;;;10.80;10.00;;;;;;;3.78;80.83;99343.84;5072441;28;20608;-78
2020/12/08 01:54:13;;;;;;;10.53;9.63;;;;;;;3.78;80.26;99338.69;5069881;28;20213;-79
2020/12/08 01:56:39;;;;;;;11.13;10.10;;;;;;;3.77;80.71;99336.16;5071886;28;20242;-77
2020/12/08 01:59:05;;;;;;;9.77;8.77;;;;;;;3.84;80.70;99336.94;5076211;28;20256;-78
2020/12/08 02:01:31;;;;;;;10.00;9.10;;;;;;;3.88;80.33;99331.72;5076632;28;20197;-78
2020/12/08 02:03:57;;;;;;;10.03;9.23;;;;;;;3.79;80.67;99334.41;5074445;28;20201;-78
2020/12/08 02:06:25;;;;;;;10.70;9.90;;;;;;;3.83;80.65;99337.81;5065558;28;20225;-79
2020/12/08 02:08:51;;;;;;;10.03;9.13;;;;;;;3.77;80.82;99330.97;5076217;28;20216;-77
2020/12/08 02:11:17;;;;;;;11.00;9.77;;;;;;;3.77;80.81;99331.84;5076353;28;20225;-79
2020/12/08 02:13:43;;;;;;;9.80;8.90;;;;;;;3.82;79.98;99338.69;5076233;28;20270;-78
2020/12/08 02:16:11;;;;;;;10.50;9.70;;;;;;;3.80;79.43;99343.84;5076259;28;20197;-79
2020/12/08 02:18:37;;;;;;;11.73;10.83;;;;;;;3.79;79.36;99334.41;5067729;28;20852;-78
2020/12/08 02:21:05;;;;;;;11.43;10.60;;;;;;;3.70;80.43;99337.91;5076060;28;20288;-78
2020/12/08 02:23:31;;;;;;;11.97;10.87;;;;;;;3.67;80.82;99335.38;5076229;28;20288;-78
2020/12/08 02:25:58;;;;;;;11.40;10.53;;;;;;;3.70;80.44;99344.78;5076057;28;20616;-78
2020/12/08 02:28:25;;;;;;;11.87;10.93;;;;;;;3.71;80.82;99338.78;5075255;28;20799;-79
2020/12/08 02:30:51;;;;;;;10.27;9.47;;;;;;;3.75;80.42;99335.31;5076133;28;20223;-78
2020/12/08 02:33:17;;;;;;;11.27;10.37;;;;;;;3.77;80.09;99344.72;5075588;28;20224;-79
2020/12/08 02:35:43;;;;;;;10.57;9.77;;;;;;;3.79;80.11;99342.16;5075678;28;20193;-78
2020/12/08 02:38:10;;;;;;;11.70;10.70;;;;;;;3.77;79.96;99342.16;5075861;28;20227;-77
2020/12/08 02:40:35;;;;;;;10.87;10.00;;;;;;;3.74;80.11;99341.31;5068967;28;20198;-78
2020/12/08 02:43:01;;;;;;;12.13;11.03;;;;;;;3.75;79.90;99343.91;5062291;28;20697;-78
2020/12/08 02:45:27;;;;;;;11.00;10.20;;;;;;;3.69;80.50;99350.84;5075586;28;20703;-77
2020/12/08 02:47:53;;;;;;;10.43;9.53;;;;;;;3.68;80.79;99349.13;5075644;28;20333;-77
2020/12/08 02:50:19;;;;;;;10.10;9.20;;;;;;;3.72;80.94;99346.50;5071189;28;20675;-77
2020/12/08 02:52:45;;;;;;;10.30;9.50;;;;;;;3.69;80.28;99343.09;5065497;28;20655;-79
2020/12/08 02:55:11;;;;;;;10.40;9.60;;;;;;;3.69;80.74;99343.09;5075354;28;20225;-79
2020/12/08 02:57:37;;;;;;;10.80;9.80;;;;;;;3.73;80.06;99347.38;5074807;28;20222;-79
2020/12/08 03:00:05;;;;;;;11.07;10.17;;;;;;;3.74;80.26;99344.75;5075186;28;20211;-79
2020/12/08 03:02:30;;;;;;;11.23;10.33;;;;;;;3.75;80.04;99351.63;5075150;28;20204;-78
2020/12/08 03:04:56;;;;;;;11.80;10.77;;;;;;;3.74;79.81;99354.22;5074848;28;20258;-79
2020/12/08 03:07:22;;;;;;;11.87;10.87;;;;;;;3.73;79.61;99352.53;5075153;28;20220;-77
2020/12/08 03:09:48;;;;;;;11.00;10.20;;;;;;;3.75;79.40;99354.22;5075220;28;20247;-78
2020/12/08 03:12:15;;;;;;;12.50;11.47;;;;;;;3.75;79.45;99354.22;5075205;28;20289;-79
2020/12/08 03:14:40;;;;;;;12.50;11.47;;;;;;;3.72;79.36;99351.66;5074377;28;20221;-78
2020/12/08 03:17:10;;;;;;;12.10;11.10;;;;;;;3.74;79.51;99355.06;5074893;28;20283;-78
2020/12/08 03:19:35;;;;;;;12.53;11.43;;;;;;;3.71;79.88;99357.69;5067951;28;20542;-79
2020/12/08 03:22:01;;;;;;;12.60;11.50;;;;;;;3.70;79.46;99362.88;5073446;28;20292;-78
2020/12/08 03:24:27;;;;;;;12.50;11.20;;;;;;;3.70;79.80;99365.44;5074435;28;20280;-77
2020/12/08 03:26:53;;;;;;;11.37;10.47;;;;;;;3.72;79.66;99369.72;5075122;28;20670;-78
2020/12/08 03:29:20;;;;;;;11.83;10.87;;;;;;;3.68;79.43;99360.28;5074634;28;20233;-79
2020/12/08 03:31:46;;;;;;;12.43;11.43;;;;;;;3.71;79.36;99362.00;5058461;28;20198;-79
2020/12/08 03:34:12;;;;;;;13.00;12.00;;;;;;;3.70;79.48;99350.81;5070841;28;20243;-77
2020/12/08 03:36:37;;;;;;;11.73;10.73;;;;;;;3.71;79.55;99349.09;5074796;28;20205;-78
2020/12/08 03:39:04;;;;;;;12.17;11.17;;;;;;;3.72;79.52;99345.63;5074251;28;20229;-77
2020/12/08 03:41:30;;;;;;;12.03;11.10;;;;;;;3.73;79.77;99343.06;5074634;28;20270;-77
2020/12/08 03:43:55;;;;;;;12.17;11.20;;;;;;;3.72;79.62;99341.31;5073149;28;20642;-78
2020/12/08 03:46:23;;;;;;;12.27;11.30;;;;;;;3.68;80.40;99337.06;5073973;28;20204;-78
2020/12/08 03:48:50;;;;;;;11.57;10.63;;;;;;;3.61;80.64;99335.44;5074298;28;20311;-77
2020/12/08 03:51:17;;;;;;;12.47;11.47;;;;;;;3.61;80.71;99339.72;5074484;28;20204;-78
2020/12/08 03:53:44;;;;;;;12.33;11.37;;;;;;;3.57;79.98;99334.59;5074210;28;20271;-77
2020/12/08 03:56:11;;;;;;;11.30;10.37;;;;;;;3.56;80.53;99339.75;5073934;28;20197;-78
2020/12/08 03:58:37;;;;;;;10.57;9.67;;;;;;;3.49;80.95;99338.97;5074046;28;20273;-77
2020/12/08 04:01:03;;;;;;;11.10;10.23;;;;;;;3.46;81.37;99344.13;5071418;28;20284;-78
2020/12/08 04:03:30;;;;;;;12.03;11.13;;;;;;;3.47;81.48;99338.13;5073957;28;20193;-77
2020/12/08 04:05:59;;;;;;;12.10;11.20;;;;;;;3.51;81.09;99337.22;5074061;28;20246;-79
2020/12/08 04:08:25;;;;;;;11.90;10.93;;;;;;;3.42;82.12;99342.44;5061038;28;20306;-79
2020/12/08 04:10:51;;;;;;;11.47;10.57;;;;;;;3.47;81.96;99339.81;5074374;28;20671;-78
2020/12/08 04:13:17;;;;;;;10.67;9.87;;;;;;;3.50;81.20;99347.53;5073831;28;20255;-78
2020/12/08 04:15:43;;;;;;;10.67;9.67;;;;;;;3.48;81.12;99344.13;5073942;28;20304;-77
2020/12/08 04:18:08;;;;;;;10.53;9.73;;;;;;;3.47;81.48;99348.44;5073434;28;20232;-78
2020/12/08 04:20:35;;;;;;;12.00;11.00;;;;;;;3.55;80.85;99341.50;5073628;28;20201;-79
2020/12/08 04:23:01;;;;;;;10.70;9.90;;;;;;;3.57;80.80;99336.31;5074141;28;20209;-78
2020/12/08 04:25:32;;;;;;;10.37;9.57;;;;;;;3.50;81.42;99335.50;5073876;28;20204;-79
2020/12/08 04:27:58;;;;;;;10.30;9.50;;;;;;;3.51;81.50;99341.53;5073323;28;20224;-79
2020/12/08 04:30:23;;;;;;;10.67;9.80;;;;;;;3.46;81.82;99338.97;5073903;28;20197;-78
2020/12/08 04:32:49;;;;;;;11.20;10.30;;;;;;;3.40;81.87;99340.75;5058548;28;20201;-79
2020/12/08 04:35:15;;;;;;;11.63;10.73;;;;;;;3.32;81.69;99341.66;5070112;28;20217;-80
2020/12/08 04:37:42;;;;;;;11.00;10.10;;;;;;;3.31;81.62;99351.97;5057300;28;20315;-78
2020/12/08 04:40:08;;;;;;;11.23;10.33;;;;;;;3.29;82.43;99362.31;5073863;28;20576;-78
2020/12/08 04:42:42;;;;;;;9.27;8.47;;;;;;;3.34;81.03;99357.97;5073818;28;20211;-78
2020/12/08 04:45:08;;;;;;;10.30;9.30;;;;;;;3.31;81.45;99364.88;5073480;28;20185;-78
2020/12/08 04:47:35;;;;;;;9.73;8.93;;;;;;;3.30;81.34;99366.59;5072338;28;21611;-78
2020/12/08 04:50:01;;;;;;;11.43;10.43;;;;;;;3.31;81.15;99372.59;5072124;28;20262;-79
2020/12/08 04:52:27;;;;;;;9.70;8.93;;;;;;;3.23;80.80;99369.22;5072399;28;20258;-79
2020/12/08 04:54:54;;;;;;;9.83;9.10;;;;;;;3.18;79.93;99364.97;5070817;28;20687;-76
2020/12/08 04:57:22;;;;;;;9.70;9.00;;;;;;;3.07;80.69;99366.75;5071761;28;20655;-78
2020/12/08 04:59:48;;;;;;;9.27;8.57;;;;;;;2.95;80.49;99366.81;5071433;28;20197;-77
2020/12/08 05:02:14;;;;;;;8.83;8.13;;;;;;;2.91;81.00;99365.97;5067347;28;20216;-78
2020/12/08 05:04:40;;;;;;;9.67;8.77;;;;;;;2.88;81.17;99372.88;5070615;28;20279;-79
2020/12/08 05:07:07;;;;;;;10.30;9.50;;;;;;;2.80;81.10;99379.78;5071740;28;20229;-80
2020/12/08 05:09:44;;;;;;;8.73;8.03;;;;;;;2.70;81.89;99368.66;5072036;28;20208;-78
2020/12/08 05:12:11;;;;;;;9.67;8.87;;;;;;;2.76;81.59;99381.53;5069142;28;20258;-78
2020/12/08 05:14:41;;;;;;;9.73;8.93;;;;;;;2.84;81.99;99373.75;5070302;28;20274;-78
2020/12/08 05:17:07;;;;;;;10.57;9.67;;;;;;;2.92;81.32;99366.84;5068668;28;20216;-77
2020/12/08 05:19:33;;;;;;;10.40;9.57;;;;;;;2.95;81.78;99364.22;5066324;28;20205;-78
2020/12/08 05:22:56;;;;;;;10.57;9.67;;;;;;;2.97;81.73;99362.50;5065865;28;20281;-79
2020/12/08 05:25:25;;;;;;;9.57;8.87;;;;;;;2.93;81.62;99365.97;5052480;28;20225;-77
2020/12/08 05:27:52;;;;;;;9.90;9.10;;;;;;;2.99;80.69;99368.50;5064256;28;20216;-78
2020/12/08 05:30:19;;;;;;;10.03;9.13;;;;;;;3.03;80.87;99372.78;5065908;28;20193;-77
2020/12/08 05:32:46;;;;;;;10.30;9.50;;;;;;;2.92;81.36;99372.84;5067778;28;20675;-78
2020/12/08 05:35:13;;;;;;;9.40;8.63;;;;;;;2.84;81.54;99372.03;5064807;28;20204;-79
2020/12/08 05:37:40;;;;;;;10.27;9.37;;;;;;;2.82;81.10;99367.75;5064337;28;20238;-79
2020/12/08 05:40:08;;;;;;;10.07;9.17;;;;;;;2.76;81.43;99366.91;5066038;28;20311;-78
2020/12/08 05:42:38;;;;;;;10.10;9.30;;;;;;;2.80;81.85;99372.06;5064985;28;20201;-77
2020/12/08 05:45:07;;;;;;;11.53;10.43;;;;;;;2.83;81.46;99372.03;5069873;28;20274;-78
2020/12/08 05:47:42;;;;;;;11.40;10.50;;;;;;;2.90;81.58;99366.84;5065927;28;20284;-79
2020/12/08 05:50:08;;;;;;;11.43;10.53;;;;;;;3.00;80.52;99370.22;5066578;28;20723;-78
2020/12/08 05:52:35;;;;;;;12.23;11.17;;;;;;;3.03;81.29;99359.88;5063443;28;20283;-78
2020/12/08 05:55:12;;;;;;;11.80;10.90;;;;;;;3.01;80.81;99364.19;5067135;28;20201;-78
2020/12/08 05:57:39;;;;;;;11.83;10.73;;;;;;;3.01;81.11;99361.63;5065319;28;20228;-78
2020/12/08 06:00:07;;;;;;;11.80;10.70;;;;;;;2.93;80.75;99355.66;5065081;28;20209;-79
2020/12/08 06:02:34;;;;;;;12.07;11.07;;;;;;;3.03;80.70;99349.56;5066701;28;20193;-77
2020/12/08 06:05:00;;;;;;;11.70;10.73;;;;;;;3.02;81.28;99360.78;5070040;28;20573;-78
2020/12/08 06:07:28;;;;;;;11.27;10.37;;;;;;;3.06;80.24;99366.78;5064243;28;20940;-78
2020/12/08 06:10:04;;;;;;;12.90;11.90;;;;;;;3.06;80.37;99367.63;5067821;28;20198;-78
2020/12/08 06:12:30;;;;;;;12.67;11.67;;;;;;;3.12;80.64;99370.16;5067228;28;20200;-78
2020/12/08 06:14:56;;;;;;;13.13;12.03;;;;;;;3.14;80.20;99371.00;5071120;28;20195;-78
2020/12/08 06:17:22;;;;;;;11.47;10.50;;;;;;;3.18;80.27;99366.69;5068141;28;20201;-78
2020/12/08 06:19:48;;;;;;;12.83;11.73;;;;;;;3.13;79.93;99371.00;5073325;28;20565;-78
2020/12/08 06:22:15;;;;;;;12.70;11.40;;;;;;;3.19;79.89;99373.53;5068147;28;20284;-79
2020/12/08 06:24:54;;;;;;;13.03;11.93;;;;;;;3.23;79.74;99377.84;5074519;28;20220;-82
2020/12/08 06:27:22;;;;;;;13.03;12.03;;;;;;;3.22;79.77;99377.84;5074746;28;20200;-81
2020/12/08 06:29:52;;;;;;;12.83;11.83;;;;;;;3.24;80.01;99376.09;5067713;28;20202;-82
2020/12/08 06:32:30;;;;;;;12.67;11.60;;;;;;;3.28;78.92;99370.06;5069747;28;20738;-82
2020/12/08 06:35:04;;;;;;;11.97;10.97;;;;;;;3.31;79.65;99376.06;5068505;28;20189;-82
2020/12/08 06:37:30;;;;;;;13.20;12.10;;;;;;;3.29;79.00;99372.66;5094859;28;20242;-79
2020/12/08 06:40:07;;;;;;;12.80;11.70;;;;;;;3.31;79.35;99372.59;5096082;28;20208;-81
2020/12/08 06:42:33;;;;;;;14.10;12.70;;;;;;;3.31;79.23;99375.19;5091322;28;20220;-82
2020/12/08 06:45:09;;;;;;;13.20;12.10;;;;;;;3.30;79.23;99381.22;5094852;28;20229;-80
2020/12/08 06:47:36;;;;;;;13.40;12.27;;;;;;;3.28;79.73;99370.91;5089428;28;20249;-79
2020/12/08 06:50:02;;;;;;;14.23;12.93;;;;;;;3.34;79.29;99380.34;5096731;28;20227;-79
2020/12/08 06:52:28;;;;;;;13.50;12.33;;;;;;;3.30;79.65;99370.91;5097788;28;20185;-79
2020/12/08 06:54:58;;;;;;;13.30;12.20;;;;;;;3.25;80.47;99381.25;5094282;28;20181;-79
2020/12/08 06:57:24;;;;;;;13.77;12.57;;;;;;;3.31;79.65;99380.34;5088337;28;20224;-79
2020/12/08 06:59:49;;;;;;;13.97;12.50;;;;;;;3.37;79.52;99381.19;5097066;28;20184;-78
2020/12/08 07:02:15;;;;;;;13.37;12.27;;;;;;;3.40;80.06;99382.03;5089377;28;20205;-79
2020/12/08 07:04:42;;;;;;;24.23;21.90;;;;;;;3.40;79.82;99379.44;5091146;28;20225;-81
2020/12/08 07:07:08;;;;;;;22.57;20.17;;;;;;;3.34;79.78;99386.34;5073605;28;20611;-81
2020/12/08 07:09:35;;;;;;;17.00;15.20;;;;;;;3.42;79.69;99386.28;5081271;28;20228;-81
2020/12/08 07:12:01;;;;;;;16.00;14.70;;;;;;;3.38;79.57;99388.03;5073221;28;20201;-80
2020/12/08 07:14:28;;;;;;;16.90;15.27;;;;;;;3.35;79.97;99389.78;5077253;28;20216;-81
2020/12/08 07:16:54;;;;;;;13.77;12.57;;;;;;;3.34;80.78;99390.66;5072822;28;20225;-81
2020/12/08 07:19:20;;;;;;;13.63;12.43;;;;;;;3.32;80.85;99390.66;5079677;28;20247;-81
2020/12/08 07:21:57;;;;;;;12.47;11.37;;;;;;;3.29;80.24;99389.81;5078384;28;20272;-81
2020/12/08 07:24:24;;;;;;;12.03;11.03;;;;;;;3.30;80.35;99388.97;5078040;28;20259;-81
2020/12/08 07:26:50;;;;;;;12.97;11.77;;;;;;;3.34;80.54;99390.66;5080544;28;20211;-81
2020/12/08 07:29:16;;;;;;;11.60;10.60;;;;;;;3.31;80.95;99395.81;5078368;28;20216;-81
2020/12/08 07:31:46;;;;;;;11.80;10.67;;;;;;;3.31;80.65;99400.97;5078576;28;20231;-81
2020/12/08 07:34:13;;;;;;;12.13;11.07;;;;;;;3.36;80.16;99404.41;5076398;28;20247;-80
2020/12/08 07:36:39;;;;;;;12.63;10.97;;;;;;;3.30;80.83;99402.72;5077960;28;20199;-82
2020/12/08 07:39:16;;;;;;;11.17;10.10;;;;;;;3.28;81.31;99406.16;5078055;28;20228;-82
2020/12/08 07:41:41;;;;;;;13.50;10.63;;;;;;;3.44;80.97;99405.19;5079739;28;20674;-81
2020/12/08 07:44:11;;;;;;;12.73;11.63;;;;;;;3.44;80.27;99407.78;5079518;28;20238;-81
2020/12/08 07:46:37;;;;;;;12.10;11.10;;;;;;;3.45;79.92;99409.50;5079811;28;20196;-81
2020/12/08 07:49:05;;;;;;;16.30;14.80;;;;;;;3.48;80.07;99409.47;5078874;28;20243;-80
2020/12/08 07:51:32;;;;;;;21.50;14.90;;;;;;;3.42;79.94;99413.81;5073793;28;20194;-81
2020/12/08 07:53:59;;;;;;;13.00;11.90;;;;;;;3.41;80.47;99412.09;5076132;28;20197;-81
2020/12/08 07:56:27;;;;;;;14.70;10.90;;;;;;;3.37;80.63;99422.44;5077296;28;20215;-80
2020/12/08 07:58:54;;;;;;;16.17;11.60;;;;;;;3.34;80.89;99427.59;5072980;28;20224;-80
2020/12/08 08:01:20;;;;;;;10.80;9.90;;;;;;;3.20;81.00;99434.56;5077438;28;20250;-80
2020/12/08 08:03:46;;;;;;;10.47;9.57;;;;;;;3.05;81.40;99432.91;5076409;28;20209;-79
2020/12/08 08:06:13;;;;;;;10.27;9.37;;;;;;;3.10;81.47;99430.34;5065440;28;20205;-79
2020/12/08 08:12:04;;;;;;;10.63;9.53;;;;;;;3.32;81.71;99431.06;5076536;28;20219;-82
2020/12/08 08:15:21;;;;;;;13.83;12.63;;;;;;;3.41;81.32;99428.44;5073499;28;20194;-83
2020/12/08 08:17:47;;;;;;;13.03;11.90;;;;;;;3.46;80.49;99433.56;5055942;28;20232;-80
2020/12/08 08:20:13;;;;;;;13.03;11.83;;;;;;;3.46;80.97;99429.25;5076630;28;20229;-83
2020/12/08 08:22:39;;;;;;;13.90;12.70;;;;;;;3.47;81.27;99422.38;5064477;28;20288;-83
2020/12/08 08:25:05;;;;;;;16.73;13.70;;;;;;;3.54;80.41;99422.31;5076750;28;20220;-82
2020/12/08 08:28:19;;;;;;;17.67;16.17;;;;;;;3.55;80.05;99423.19;5077747;28;20232;-84
2020/12/08 08:38:19;;;;;;;17.90;15.97;;;;;;;3.28;80.81;99426.81;5055866;28;20232;-81
2020/12/08 08:40:45;;;;;;;17.63;15.90;;;;;;;3.22;81.41;99432.00;5075482;28;20262;-79
2020/12/08 08:43:11;;;;;;;13.93;12.80;;;;;;;3.26;80.82;99436.28;5067816;28;20201;-80
2020/12/08 08:45:37;;;;;;;13.83;12.53;;;;;;;3.21;80.93;99438.00;5074297;28;20213;-79
2020/12/08 08:48:03;;;;;;;13.93;12.43;;;;;;;3.22;81.16;99429.41;5066629;28;20282;-79
2020/12/08 08:50:33;;;;;;;14.00;12.70;;;;;;;3.18;80.40;99434.56;5074959;28;20201;-81
2020/12/08 08:57:16;;;;;;;13.60;12.30;;;;;;;3.17;80.66;99438.03;5073968;28;20693;-81
2020/12/08 08:59:46;;;;;;;13.50;12.30;;;;;;;3.18;80.32;99444.91;5072409;28;20255;-81
2020/12/08 09:02:13;;;;;;;15.37;14.03;;;;;;;3.12;80.86;99444.94;5068067;28;20201;-82
2020/12/08 09:04:39;;;;;;;15.03;13.73;;;;;;;3.12;81.39;99442.34;5074450;28;20220;-78
2020/12/08 09:07:04;;;;;;;15.53;14.23;;;;;;;3.13;81.09;99451.81;5069481;28;20201;-79
2020/12/08 09:09:31;;;;;;;14.60;13.40;;;;;;;3.24;80.92;99438.00;5071322;28;20736;-79
2020/12/08 09:11:56;;;;;;;14.90;13.50;;;;;;;3.28;81.10;99440.53;5069386;28;20209;-79
2020/12/08 09:14:23;;;;;;;18.83;17.40;;;;;;;3.38;80.00;99442.19;5070000;28;20454;-77
2020/12/08 09:16:49;;;;;;;13.43;12.20;;;;;;;3.39;79.96;99450.81;5067577;28;20224;-79
2020/12/08 09:19:44;;;;;;;14.73;13.43;;;;;;;3.42;79.57;99448.19;5072759;28;20224;-81
2020/12/08 09:22:10;;;;;;;16.33;13.43;;;;;;;3.42;79.80;99452.50;5068760;28;20613;-79
2020/12/08 09:24:36;;;;;;;16.17;14.67;;;;;;;3.42;80.21;99449.94;5068443;28;20318;-78
2020/12/08 09:27:04;;;;;;;16.90;14.90;;;;;;;3.40;79.96;99446.50;5072241;28;20209;-79
2020/12/08 09:29:30;;;;;;;17.40;15.70;;;;;;;3.41;80.11;99443.94;5068579;28;20696;-78
2020/12/08 09:31:57;;;;;;;17.27;15.50;;;;;;;3.40;79.89;99436.19;5069963;28;20675;-79
2020/12/08 09:34:26;;;;;;;17.07;15.40;;;;;;;3.42;80.33;99440.47;5072232;28;20693;-80
2020/12/08 09:37:26;;;;;;;16.57;15.17;;;;;;;3.46;80.02;99441.31;5069536;28;20563;-80
2020/12/08 09:39:52;;;;;;;17.17;15.67;;;;;;;3.43;80.43;99437.03;5074274;28;20684;-79
2020/12/08 09:42:19;;;;;;;19.27;17.23;;;;;;;3.40;80.20;99444.78;5068478;28;20283;-78
2020/12/08 09:44:46;;;;;;;18.43;16.73;;;;;;;3.44;79.93;99443.03;5071618;28;20261;-77
2020/12/08 09:47:31;;;;;;;19.30;16.90;;;;;;;3.41;80.11;99445.63;5069512;28;20287;-80
2020/12/08 09:49:57;;;;;;;18.80;17.07;;;;;;;3.46;80.63;99449.06;5072965;28;20212;-79
2020/12/08 09:52:27;;;;;;;17.53;15.93;;;;;;;3.43;80.38;99442.19;5067308;28;20197;-80
2020/12/08 09:54:53;;;;;;;18.37;16.03;;;;;;;3.45;80.19;99445.63;5073347;28;20200;-79
2020/12/08 09:57:19;;;;;;;18.17;16.27;;;;;;;3.49;80.49;99449.91;5073664;28;20253;-79
2020/12/08 09:59:46;;;;;;;17.27;15.73;;;;;;;3.46;80.37;99456.78;5070442;28;20257;-79
2020/12/08 10:02:12;;;;;;;16.93;15.43;;;;;;;3.53;80.12;99449.00;5066753;28;20288;-78
2020/12/08 10:04:39;;;;;;;19.13;17.33;;;;;;;3.55;80.32;99442.13;5071446;28;20308;-80
2020/12/08 10:07:05;;;;;;;18.93;16.97;;;;;;;3.60;79.80;99443.81;5068815;28;20222;-79
2020/12/08 10:09:30;;;;;;;21.87;16.90;;;;;;;3.61;79.97;99445.50;5072038;28;20209;-79
2020/12/08 10:11:56;;;;;;;17.47;15.87;;;;;;;3.62;79.95;99442.06;5070286;28;20209;-80
2020/12/08 10:14:22;;;;;;;18.50;16.80;;;;;;;3.59;80.00;99453.28;5069136;28;20264;-81
2020/12/08 10:16:50;;;;;;;17.83;16.23;;;;;;;3.62;80.10;99453.22;5073378;28;20219;-79
2020/12/08 10:19:17;;;;;;;17.63;15.30;;;;;;;3.69;79.43;99454.06;5075482;28;20702;-78
2020/12/08 10:28:50;;;;;;;18.37;16.77;;;;;;;3.78;79.37;99447.09;5077543;28;20228;-81
2020/12/08 10:31:53;;;;;;;17.67;16.03;;;;;;;3.80;79.21;99441.91;4994034;28;20204;-80
2020/12/08 10:34:34;;;;;;;18.50;16.83;;;;;;;3.83;79.47;99447.06;5073241;28;20258;-79
2020/12/08 10:37:02;;;;;;;19.03;17.33;;;;;;;3.91;79.28;99442.72;5072957;28;20209;-80
2020/12/08 10:39:28;;;;;;;18.73;16.87;;;;;;;3.95;79.39;99434.06;5076007;28;20229;-81
2020/12/08 10:41:56;;;;;;;18.63;16.80;;;;;;;4.08;79.20;99439.97;5072767;28;20206;-80
2020/12/08 10:44:22;;;;;;;19.10;17.27;;;;;;;4.16;78.96;99438.19;5075452;28;20250;-81
2020/12/08 10:46:49;;;;;;;18.10;16.37;;;;;;;4.24;78.85;99437.25;5072534;28;20615;-81
2020/12/08 10:49:15;;;;;;;17.47;16.03;;;;;;;4.30;78.89;99439.78;5073505;28;20217;-80
2020/12/08 10:51:41;;;;;;;18.23;16.60;;;;;;;4.37;78.94;99439.69;5072758;28;20244;-79
2020/12/08 10:54:06;;;;;;;17.87;16.37;;;;;;;4.46;77.40;99440.47;5072468;28;20205;-78
2020/12/08 10:56:32;;;;;;;17.33;15.73;;;;;;;4.50;77.37;99442.16;5077115;28;20567;-80
2020/12/08 10:58:59;;;;;;;18.43;16.70;;;;;;;4.52;77.42;99443.00;5073352;28;20237;-80
2020/12/08 11:01:26;;;;;;;16.87;15.17;;;;;;;4.56;76.96;99430.03;5074108;28;20193;-79
2020/12/08 11:03:53;;;;;;;17.10;15.70;;;;;;;4.61;77.14;99440.31;5070391;28;20242;-80
2020/12/08 11:06:20;;;;;;;17.67;16.17;;;;;;;4.67;76.99;99437.66;5074167;28;20699;-79
2020/12/08 11:08:46;;;;;;;17.43;15.70;;;;;;;4.69;76.48;99435.91;5069869;28;20221;-78
2020/12/08 11:11:12;;;;;;;17.33;15.83;;;;;;;4.69;76.08;99430.75;5073980;28;20205;-79
2020/12/08 11:13:38;;;;;;;16.33;14.73;;;;;;;4.73;76.16;99432.44;5070322;28;20205;-80
2020/12/08 11:19:44;;;;;;;17.00;15.43;;;;;;;4.60;76.44;99427.41;5075345;28;20270;-79
2020/12/08 11:22:13;;;;;;;17.23;15.73;;;;;;;4.56;76.59;99426.63;5070395;28;20231;-79
2020/12/08 11:24:39;;;;;;;17.73;16.23;;;;;;;4.56;77.49;99416.28;5074305;28;20221;-79
2020/12/08 11:27:27;;;;;;;18.00;16.17;;;;;;;4.55;77.33;99422.31;5075348;28;20206;-78
2020/12/08 11:29:53;;;;;;;19.10;17.30;;;;;;;4.52;77.78;99427.50;5071275;28;20262;-77
2020/12/08 11:32:19;;;;;;;19.20;17.30;;;;;;;4.51;77.77;99430.97;5070482;28;20205;-78
2020/12/08 11:34:48;;;;;;;18.50;16.60;;;;;;;4.51;78.08;99431.81;5074745;28;20196;-79
2020/12/08 11:37:14;;;;;;;19.37;17.47;;;;;;;4.53;77.63;99426.63;5072142;28;20213;-79
2020/12/08 11:39:41;;;;;;;18.90;17.30;;;;;;;4.50;77.66;99430.13;5071976;28;20271;-79
2020/12/08 11:42:08;;;;;;;17.93;16.33;;;;;;;4.52;77.38;99435.25;5067783;28;20200;-80
2020/12/08 11:44:34;;;;;;;19.63;17.53;;;;;;;4.48;77.33;99428.41;5068300;28;20225;-80
2020/12/08 11:46:59;;;;;;;18.60;16.87;;;;;;;4.51;77.60;99431.81;5067176;28;20201;-79
2020/12/08 11:52:50;;;;;;;19.13;17.27;;;;;;;4.53;77.92;99430.06;5053279;28;20198;-79
2020/12/08 11:55:16;;;;;;;18.90;17.30;;;;;;;4.57;77.65;99430.91;5067962;28;20728;-78
2020/12/08 11:57:42;;;;;;;19.43;17.77;;;;;;;4.67;77.64;99424.75;5070402;28;20222;-79
2020/12/08 12:00:08;;;;;;;20.57;18.70;;;;;;;4.70;77.11;99429.03;5071523;28;20702;-80
2020/12/08 12:02:34;;;;;;;19.23;17.53;;;;;;;4.74;76.69;99426.41;5069064;28;20827;-78